CDT,Max TemperatureF,Mean TemperatureF,Min TemperatureF,Max Dew PointF,MeanDew PointF,Min DewpointF,Max Humidity, Mean Humidity, Min Humidity, Max Sea Level PressureIn, Mean Sea Level PressureIn, Min Sea Level PressureIn, Max VisibilityMiles, Mean VisibilityMiles, Min VisibilityMiles, Max Wind SpeedMPH, Mean Wind SpeedMPH, Max Gust SpeedMPH,PrecipitationIn, CloudCover, Events, WindDirDegrees
2013-9-1,83,74,65,69,64,57,90,68,45,29.88,29.77,29.72,10,10,10,21,10,25,T,3,,274
2013-9-2,70,61,52,57,52,50,93,73,53,30.04,30.00,29.90,10,10,10,15,7,17,0.00,4,,328
2013-9-3,78,63,48,55,51,46,100,70,40,30.12,30.07,30.01,10,7,0,10,4,22,0.00,1,Fog,142
2013-9-4,88,72,55,67,60,53,93,70,46,30.10,30.06,30.03,10,10,10,10,5,12,0.00,0,,185
2013-9-5,81,71,60,65,61,58,93,74,54,30.24,30.17,30.11,10,10,8,10,5,14,0.00,2,Rain,104
2013-9-6,90,77,64,65,60,53,73,57,41,30.14,30.03,29.89,10,10,10,16,9,23,0.00,0,,168
2013-9-7,94,83,71,73,66,62,74,59,44,29.92,29.87,29.82,10,10,10,16,5,22,0.00,2,,89
2013-9-8,77,72,67,66,61,54,79,70,60,30.06,29.99,29.90,10,10,10,16,9,22,0.00,8,,101
2013-9-9,93,81,69,74,66,61,84,62,40,29.89,29.78,29.66,10,8,5,23,11,30,0.00,4,,160
2013-9-10,91,81,70,67,64,62,73,59,44,29.94,29.85,29.72,10,10,10,23,7,28,T,2,Rain,245
2013-9-11,88,76,64,65,62,57,84,62,40,30.01,29.98,29.95,10,9,4,16,6,21,T,0,,216
2013-9-12,77,66,55,59,50,45,84,59,33,30.19,30.09,29.97,10,10,8,22,9,26,0.00,1,,342
2013-9-13,70,58,45,45,43,41,93,65,36,30.27,30.20,30.14,10,10,10,12,5,15,0.00,0,,14
2013-9-14,76,61,45,55,45,42,86,60,33,30.14,30.05,29.92,10,10,3,16,8,21,0.29,2,Rain,154
2013-9-15,70,63,56,56,54,48,93,73,53,30.28,30.02,29.89,10,8,2,16,6,23,0.52,7,Rain,46
2013-9-16,68,59,49,48,42,38,77,56,34,30.42,30.35,30.29,10,10,10,13,6,,0.00,2,,77
2013-9-17,65,56,47,57,50,43,86,75,63,30.32,30.19,30.00,10,10,4,14,6,16,0.09,3,Rain,131
2013-9-18,81,72,63,68,63,58,87,73,58,29.99,29.86,29.76,10,9,5,20,11,24,T,5,,169
2013-9-19,86,78,69,70,68,66,90,75,59,29.78,29.73,29.65,10,9,2,24,9,30,0.32,4,Rain-Thunderstorm,185
2013-9-20,69,63,57,66,55,49,90,73,56,29.89,29.80,29.73,10,10,10,22,11,26,T,7,,286
2013-9-21,65,56,47,50,46,41,89,69,48,29.98,29.93,29.88,10,10,10,16,7,21,0.00,3,,322
2013-9-22,70,57,44,50,46,41,100,74,47,30.07,30.00,29.94,10,9,2,12,6,15,0.00,1,,124
2013-9-23,73,62,50,51,48,45,86,65,44,30.06,30.00,29.96,10,10,10,18,9,23,0.00,0,,135
2013-9-24,77,64,50,53,49,46,86,62,38,30.01,29.97,29.91,10,10,10,12,6,18,0.00,0,,108
2013-9-25,74,61,48,53,49,45,93,70,46,30.02,29.97,29.91,10,7,0,12,5,16,0.00,1,Fog,110
2013-9-26,80,66,51,58,53,48,89,67,45,30.02,29.98,29.94,10,9,6,16,8,22,0.00,0,,135
2013-9-27,84,72,60,61,53,47,69,56,43,30.03,29.97,29.91,10,10,10,23,11,29,0.00,0,,157
2013-9-28,78,64,50,65,56,48,93,70,47,29.97,29.84,29.74,10,7,2,28,9,35,0.39,5,Rain,210
2013-9-29,73,61,49,51,48,46,93,66,38,30.05,29.99,29.92,10,7,0,16,9,20,0.00,2,Fog,169
2013-9-30,75,65,55,52,49,46,77,57,36,29.91,29.81,29.71,10,10,10,24,13,31,0.00,0,,161